Terminal Aerodrome Forecast
Issued by NWS Lake Charles, LA

Home | Current Version | Previous Version | Text Only | Print | Product List | Glossary On
Versions: 1 2 3 4 5 6 7 8 9 10 11 12 13 14 15 16 17 18 19 20 21 22 23 24 25 26
000
FTUS44 KLCH 191140 AAA
TAFBPT
TAF AMD
KBPT 191140Z 1912/2012 VRB04KT P6SM SKC
     FM191400 22007KT P6SM SKC
     FM191700 22012KT P6SM SCT040
     FM192300 28008KT P6SM SCT040 SCT090
     FM200700 32012G18KT P6SM SKC=

USA.gov is the U.S. government's official web portal to all federal, state and local government web resources and services.